createdAt,value
2022-11-04T00:00:29.681Z,1.30
2022-11-04T00:07:31.307Z,1.70
2022-11-04T00:14:14.672Z,1.50
2022-11-04T00:21:26.192Z,1.38
2022-11-04T00:28:31.358Z,1.90
2022-11-04T00:35:14.210Z,1.60
2022-11-04T00:41:56.577Z,1.40
2022-11-04T00:48:38.914Z,1.70
2022-11-04T00:55:21.256Z,1.50
2022-11-04T01:02:04.129Z,1.40
2022-11-04T01:08:47.433Z,1.52
2022-11-04T01:15:29.797Z,1.55
2022-11-04T01:22:12.197Z,1.40
2022-11-04T01:28:56.095Z,1.20
2022-11-04T01:35:38.493Z,1.30
2022-11-04T01:42:22.159Z,1.20
2022-11-04T01:49:23.101Z,1.00
2022-11-04T01:56:11.931Z,1.10
2022-11-04T02:02:59.967Z,1.10
2022-11-04T02:09:44.036Z,1.13
2022-11-04T02:16:32.501Z,1.30
2022-11-04T02:23:52.432Z,1.20
2022-11-04T02:30:40.594Z,1.25
2022-11-04T02:38:04.560Z,1.30
2022-11-04T02:45:26.534Z,1.10
2022-11-04T02:52:11.927Z,0.88
2022-11-04T02:58:58.398Z,0.95
2022-11-04T03:05:44.286Z,1.13
2022-11-04T03:12:37.329Z,1.30
2022-11-04T03:19:53.442Z,1.20
2022-11-04T03:26:46.927Z,1.42
2022-11-04T03:33:48.353Z,1.50
2022-11-04T03:40:30.700Z,0.75
2022-11-04T03:47:17.444Z,0.98
2022-11-04T03:54:00.305Z,1.38
2022-11-04T04:01:16.810Z,1.15
2022-11-04T04:08:14.145Z,1.00
2022-11-04T04:15:04.959Z,1.38
2022-11-04T04:21:56.693Z,1.35
2022-11-04T04:28:40.050Z,1.58
2022-11-04T04:35:42.391Z,1.40
2022-11-04T04:42:43.752Z,1.52
2022-11-04T04:49:34.858Z,1.92
2022-11-04T04:56:17.249Z,1.52
2022-11-04T05:02:59.874Z,1.52
2022-11-04T05:09:42.346Z,1.58
2022-11-04T05:16:24.677Z,1.63
2022-11-04T05:23:07.944Z,1.48
2022-11-04T05:29:50.280Z,1.63
2022-11-04T05:36:35.522Z,2.20
2022-11-04T05:43:18.005Z,2.22
2022-11-04T05:50:00.525Z,2.92
2022-11-04T05:56:42.865Z,2.30
2022-11-04T06:03:30.031Z,2.00
2022-11-04T06:10:12.383Z,2.60
2022-11-04T06:16:54.675Z,2.28
2022-11-04T06:23:37.216Z,2.65
2022-11-04T06:30:19.531Z,2.92
2022-11-04T06:37:01.959Z,3.25
2022-11-04T06:43:44.393Z,2.95
2022-11-04T06:50:26.704Z,2.50
2022-11-04T06:57:12.009Z,2.85
2022-11-04T07:03:56.536Z,3.17
2022-11-04T07:10:38.997Z,3.67
2022-11-04T07:17:21.339Z,3.70
2022-11-04T07:24:03.836Z,4.00
2022-11-04T07:30:46.672Z,3.45
2022-11-04T07:37:28.998Z,3.20
2022-11-04T07:44:12.126Z,3.75
2022-11-04T07:50:59.630Z,3.50
2022-11-04T07:57:41.953Z,3.38
2022-11-04T08:04:24.497Z,3.33
2022-11-04T08:11:17.422Z,3.50
2022-11-04T08:18:00.344Z,2.83
2022-11-04T08:24:42.981Z,3.13
2022-11-04T08:31:33.719Z,2.53
2022-11-04T08:38:16.132Z,1.90
2022-11-04T08:44:58.626Z,2.10
2022-11-04T08:51:44.352Z,1.90
2022-11-04T08:58:26.926Z,1.92
2022-11-04T09:05:10.171Z,2.22
2022-11-04T09:11:52.631Z,2.50
2022-11-04T09:18:35.436Z,2.50
2022-11-04T09:25:17.802Z,1.88
2022-11-04T09:32:01.066Z,2.92
2022-11-04T09:38:44.880Z,2.10
2022-11-04T09:45:29.431Z,2.95
2022-11-04T09:52:21.260Z,2.60
2022-11-04T09:59:04.899Z,2.75
2022-11-04T10:05:56.888Z,3.00
2022-11-04T10:12:46.833Z,2.90
2022-11-04T10:19:56.504Z,2.17
2022-11-04T10:26:46.232Z,1.70
2022-11-04T10:33:37.546Z,2.20
2022-11-04T10:40:29.367Z,1.83
2022-11-04T10:47:39.192Z,2.45
2022-11-04T10:54:22.618Z,2.50
2022-11-04T11:01:24.345Z,2.00
2022-11-04T11:08:30.987Z,1.50
2022-11-04T11:15:30.004Z,1.58
2022-11-04T11:22:31.651Z,1.70
2022-11-04T11:29:18.437Z,2.15
2022-11-04T11:36:17.001Z,1.92
2022-11-04T11:43:00.800Z,1.52
2022-11-04T11:49:43.704Z,1.60
2022-11-04T11:57:07.276Z,1.98
2022-11-04T12:11:16.078Z,1.60
2022-11-04T12:18:02.783Z,1.70
2022-11-04T12:24:56.212Z,1.80
2022-11-04T12:31:59.809Z,2.35
2022-11-04T12:39:31.611Z,1.73
2022-11-04T12:46:36.277Z,1.92
2022-11-04T12:53:27.739Z,1.63
2022-11-04T13:00:14.559Z,1.58
2022-11-04T13:07:01.051Z,1.98
2022-11-04T13:13:43.446Z,1.80
2022-11-04T13:20:40.054Z,1.50
2022-11-04T13:27:48.300Z,1.77
2022-11-04T13:35:08.166Z,1.70
2022-11-04T13:42:05.949Z,1.75
2022-11-04T13:49:11.513Z,1.88
2022-11-04T13:55:54.063Z,1.77
2022-11-04T14:02:44.700Z,1.77
2022-11-04T14:09:32.696Z,2.17
2022-11-04T14:16:24.374Z,1.92
2022-11-04T14:23:23.576Z,1.95
2022-11-04T14:30:07.920Z,1.05
2022-11-04T14:36:56.820Z,1.48
2022-11-04T14:43:43.273Z,1.20
2022-11-04T14:50:28.071Z,1.58
2022-11-04T14:57:15.497Z,1.30
2022-11-04T15:04:24.743Z,1.83
2022-11-04T15:11:17.557Z,2.20
2022-11-04T15:18:21.824Z,1.90
2022-11-04T15:25:11.850Z,1.70
2022-11-04T15:32:05.155Z,1.70
2022-11-04T15:38:52.954Z,2.67
2022-11-04T15:45:37.848Z,2.22
2022-11-04T15:52:26.435Z,2.17
2022-11-04T15:59:14.686Z,2.15
2022-11-04T16:06:05.275Z,2.55
2022-11-04T16:12:47.686Z,2.50
2022-11-04T16:19:32.095Z,3.42
2022-11-04T16:26:14.700Z,2.00
2022-11-04T16:33:10.268Z,1.70
2022-11-04T16:39:53.903Z,1.95
2022-11-04T16:46:36.455Z,2.50
2022-11-04T16:53:18.894Z,2.53
2022-11-04T17:00:01.662Z,2.50
2022-11-04T17:06:46.047Z,2.50
2022-11-04T17:13:33.518Z,2.30
2022-11-04T17:20:19.475Z,2.25
2022-11-04T17:27:01.769Z,2.55
2022-11-04T17:33:44.470Z,2.75
2022-11-04T17:40:26.809Z,2.60
2022-11-04T17:47:14.189Z,3.05
2022-11-04T17:53:56.750Z,3.00
2022-11-04T18:00:39.072Z,2.78
2022-11-04T18:07:21.378Z,3.28
2022-11-04T18:14:03.713Z,3.25
2022-11-04T18:20:46.258Z,6.40
2022-11-04T18:27:28.582Z,4.25
2022-11-04T18:34:13.737Z,3.90
2022-11-04T18:40:56.056Z,2.70
2022-11-04T18:47:38.386Z,3.60
2022-11-04T18:54:20.717Z,3.67
2022-11-04T19:01:12.924Z,3.95
2022-11-04T19:07:57.801Z,4.30
2022-11-04T19:14:40.339Z,4.25
2022-11-04T19:21:24.044Z,5.22
2022-11-04T19:28:32.699Z,4.80
2022-11-04T19:35:09.864Z,4.30
2022-11-04T19:42:10.851Z,7.75
2022-11-04T19:48:53.489Z,4.90
2022-11-04T19:55:36.520Z,6.00
2022-11-04T20:02:19.243Z,21.63
2022-11-04T20:09:07.088Z,6.78
2022-11-04T20:15:49.450Z,6.53
2022-11-04T20:22:31.789Z,6.85
2022-11-04T20:29:19.693Z,6.63
2022-11-04T20:36:02.881Z,6.15
2022-11-04T20:42:47.731Z,7.20
2022-11-04T20:49:32.393Z,10.68
2022-11-04T20:56:18.077Z,10.07
2022-11-04T21:03:00.522Z,9.50
2022-11-04T21:10:06.249Z,9.57
2022-11-04T21:16:48.641Z,8.43
2022-11-04T21:23:31.455Z,8.57
2022-11-04T21:30:13.928Z,9.43
2022-11-04T21:36:56.306Z,9.15
2022-11-04T21:43:39.104Z,8.60
2022-11-04T21:50:21.463Z,8.35
2022-11-04T21:57:03.975Z,7.70
2022-11-04T22:03:54.303Z,8.05
2022-11-04T22:10:36.960Z,8.13
2022-11-04T22:17:19.385Z,8.82
2022-11-04T22:24:02.112Z,8.45
2022-11-04T22:30:44.734Z,8.73
2022-11-04T22:37:27.337Z,6.25
2022-11-04T22:44:09.759Z,6.75
2022-11-04T22:50:57.276Z,6.55
2022-11-04T22:57:40.719Z,6.43
2022-11-04T23:04:23.036Z,6.55
2022-11-04T23:11:28.354Z,6.07
2022-11-04T23:18:31.386Z,6.00
2022-11-04T23:25:13.997Z,5.97
2022-11-04T23:31:56.448Z,5.88
2022-11-04T23:38:38.965Z,5.93
2022-11-04T23:45:40.351Z,6.55
2022-11-04T23:52:41.440Z,6.57
2022-11-04T23:59:42.230Z,6.47
